createdAt,value
2018-03-28T00:30:27.794Z,8.77
2018-03-28T00:32:56.115Z,12.73
2018-03-28T00:35:23.731Z,11.80
2018-03-28T00:37:52.143Z,11.13
2018-03-28T00:40:19.742Z,11.00
2018-03-28T00:42:47.366Z,9.53
2018-03-28T00:45:16.858Z,9.57
2018-03-28T00:47:44.534Z,13.30
2018-03-28T00:50:12.120Z,12.60
2018-03-28T00:52:40.686Z,12.03
2018-03-28T00:55:08.403Z,9.30
2018-03-28T00:57:35.968Z,9.97
2018-03-28T01:00:03.689Z,13.43
2018-03-28T01:02:31.248Z,10.53
2018-03-28T01:04:59.845Z,14.63
2018-03-28T01:07:27.409Z,10.90
2018-03-28T01:09:54.971Z,10.80
2018-03-28T01:12:22.584Z,9.67
2018-03-28T01:14:50.134Z,12.50
2018-03-28T01:17:18.483Z,14.60
2018-03-28T01:19:47.033Z,12.57
2018-03-28T01:22:14.600Z,11.47
2018-03-28T01:24:42.179Z,10.33
2018-03-28T01:27:09.854Z,15.50
2018-03-28T01:29:37.420Z,12.10
2018-03-28T01:32:04.993Z,15.33
2018-03-28T01:34:34.139Z,12.60
2018-03-28T01:37:02.691Z,14.23
2018-03-28T01:39:30.250Z,10.87
2018-03-28T01:41:58.676Z,13.50
2018-03-28T01:44:26.218Z,12.60
2018-03-28T01:46:54.534Z,13.67
2018-03-28T01:49:22.149Z,15.93
2018-03-28T01:51:50.470Z,14.67
2018-03-28T01:54:18.039Z,15.80
2018-03-28T01:56:45.632Z,16.90
2018-03-28T01:59:13.197Z,19.83
2018-03-28T02:01:40.754Z,15.80
2018-03-28T02:04:08.540Z,15.27
2018-03-28T02:06:36.081Z,16.23
2018-03-28T02:09:03.641Z,13.57
2018-03-28T02:11:31.179Z,17.50
2018-03-28T02:13:59.552Z,17.80
2018-03-28T02:16:27.863Z,15.83
2018-03-28T02:18:55.409Z,23.00
2018-03-28T02:21:23.742Z,14.70
2018-03-28T02:23:51.280Z,17.00
2018-03-28T02:26:18.841Z,18.27
2018-03-28T02:28:46.369Z,16.97
2018-03-28T02:31:14.743Z,21.10
2018-03-28T02:33:42.308Z,22.53
2018-03-28T02:36:10.631Z,18.23
2018-03-28T02:38:38.186Z,19.83
2018-03-28T02:41:05.794Z,16.57
2018-03-28T02:43:34.108Z,23.60
2018-03-28T02:46:01.679Z,24.20
2018-03-28T02:48:29.255Z,19.73
2018-03-28T02:50:56.794Z,24.13
2018-03-28T02:53:24.378Z,21.13
2018-03-28T02:55:52.130Z,22.27
2018-03-28T02:58:19.714Z,27.53
2018-03-28T03:00:47.547Z,29.30
2018-03-28T03:03:15.149Z,26.43
2018-03-28T03:05:43.855Z,25.57
2018-03-28T03:08:12.208Z,22.80
2018-03-28T03:10:39.780Z,27.53
2018-03-28T03:13:07.334Z,27.33
2018-03-28T03:15:34.889Z,27.63
2018-03-28T03:18:02.415Z,32.47
2018-03-28T03:20:30.009Z,26.67
2018-03-28T03:22:57.565Z,25.80
2018-03-28T03:25:25.898Z,28.47
2018-03-28T03:27:53.458Z,32.23
2018-03-28T03:30:21.071Z,35.37
2018-03-28T03:32:48.604Z,32.10
2018-03-28T03:35:16.163Z,31.63
2018-03-28T03:37:43.721Z,34.70
2018-03-28T03:40:11.268Z,29.27
2018-03-28T03:42:39.540Z,29.67
2018-03-28T03:45:07.095Z,31.23
2018-03-28T03:47:34.641Z,33.20
2018-03-28T03:50:02.221Z,33.40
2018-03-28T03:52:29.781Z,29.73
2018-03-28T03:54:57.337Z,33.73
2018-03-28T03:57:25.737Z,32.60
2018-03-28T03:59:53.280Z,33.73
2018-03-28T04:02:20.834Z,34.90
2018-03-28T04:04:48.394Z,37.63
2018-03-28T04:07:15.964Z,33.60
2018-03-28T04:09:43.561Z,34.07
2018-03-28T04:12:11.146Z,34.27
2018-03-28T04:14:38.719Z,35.70
2018-03-28T04:17:06.245Z,35.13
2018-03-28T04:19:33.827Z,37.73
2018-03-28T04:22:01.536Z,33.67
2018-03-28T04:24:29.124Z,36.67
2018-03-28T04:26:56.668Z,36.33
2018-03-28T04:29:24.196Z,41.53
2018-03-28T04:31:51.764Z,40.77
2018-03-28T04:34:19.325Z,31.13
2018-03-28T04:36:46.877Z,39.57
2018-03-28T04:39:14.428Z,38.60
2018-03-28T04:41:42.005Z,34.83
2018-03-28T04:44:09.547Z,34.37
2018-03-28T04:46:37.111Z,39.03
2018-03-28T04:49:04.678Z,37.40
2018-03-28T04:51:32.255Z,35.03
2018-03-28T04:53:59.798Z,37.70
2018-03-28T04:56:27.326Z,38.63
2018-03-28T04:58:54.907Z,44.80
2018-03-28T05:01:22.589Z,41.30
2018-03-28T05:03:50.854Z,40.63
2018-03-28T05:06:18.411Z,36.10
2018-03-28T05:08:46.000Z,34.63
2018-03-28T05:11:13.531Z,35.40
2018-03-28T05:13:41.873Z,35.67
2018-03-28T05:16:09.418Z,42.33
2018-03-28T05:18:37.034Z,39.10
2018-03-28T05:21:04.626Z,47.17
2018-03-28T05:23:32.222Z,37.53
2018-03-28T05:25:59.955Z,43.70
2018-03-28T05:28:27.892Z,43.20
2018-03-28T05:30:55.470Z,38.87
2018-03-28T05:33:23.006Z,50.60
2018-03-28T05:35:50.608Z,45.70
2018-03-28T05:38:18.154Z,50.27
2018-03-28T05:40:45.741Z,42.97
2018-03-28T05:43:13.285Z,40.63
2018-03-28T05:45:40.865Z,41.07
2018-03-28T05:48:08.473Z,47.27
2018-03-28T05:50:36.038Z,45.07
2018-03-28T05:53:03.644Z,46.57
2018-03-28T05:55:31.209Z,44.17
2018-03-28T05:57:58.783Z,43.00
2018-03-28T06:00:26.341Z,41.73
2018-03-28T06:02:53.893Z,47.30
2018-03-28T06:05:21.449Z,40.83
2018-03-28T06:07:49.052Z,39.93
2018-03-28T06:10:16.613Z,48.90
2018-03-28T06:12:44.249Z,48.37
2018-03-28T06:15:11.787Z,46.13
2018-03-28T06:17:39.345Z,49.43
2018-03-28T06:20:06.907Z,42.03
2018-03-28T06:22:34.480Z,42.77
2018-03-28T06:25:04.425Z,48.17
2018-03-28T06:27:32.029Z,45.27
2018-03-28T06:29:59.585Z,49.20
2018-03-28T06:32:27.186Z,48.60
2018-03-28T06:34:54.789Z,57.97
2018-03-28T06:37:22.342Z,68.63
2018-03-28T06:39:49.937Z,53.63
2018-03-28T06:42:17.494Z,54.13
2018-03-28T06:44:45.063Z,54.93
2018-03-28T06:47:12.652Z,50.83
2018-03-28T06:49:40.200Z,56.03
2018-03-28T06:52:07.802Z,55.30
2018-03-28T06:54:35.359Z,55.17
2018-03-28T06:57:02.981Z,51.27
2018-03-28T06:59:30.523Z,52.37
2018-03-28T07:01:58.108Z,53.20
2018-03-28T07:04:25.642Z,55.37
2018-03-28T07:06:53.316Z,60.23
2018-03-28T07:09:21.837Z,53.17
2018-03-28T07:11:49.405Z,55.87
2018-03-28T07:14:16.957Z,50.23
2018-03-28T07:16:45.279Z,55.50
2018-03-28T07:19:12.843Z,60.07
2018-03-28T07:21:40.407Z,58.97
2018-03-28T07:24:07.978Z,62.30
2018-03-28T07:26:35.518Z,60.67
2018-03-28T07:29:03.106Z,64.13
2018-03-28T07:31:30.668Z,59.33
2018-03-28T07:33:58.261Z,61.10
2018-03-28T07:36:26.580Z,62.67
2018-03-28T07:38:54.163Z,65.87
2018-03-28T07:41:21.726Z,61.43
2018-03-28T07:43:49.278Z,72.83
2018-03-28T07:46:16.854Z,66.13
2018-03-28T07:48:44.418Z,64.30
2018-03-28T07:51:12.896Z,69.13
2018-03-28T07:53:41.346Z,64.20
2018-03-28T07:56:08.914Z,57.10
2018-03-28T07:58:36.462Z,69.80
2018-03-28T08:01:04.019Z,82.03
2018-03-28T08:03:31.590Z,74.87
2018-03-28T08:05:59.152Z,75.83
2018-03-28T08:08:26.698Z,72.93
2018-03-28T08:10:54.258Z,75.97
2018-03-28T08:13:21.829Z,68.67
2018-03-28T08:15:49.414Z,81.10
2018-03-28T08:18:17.889Z,83.97
2018-03-28T08:20:45.461Z,62.30
2018-03-28T08:23:13.075Z,80.93
2018-03-28T08:25:40.679Z,83.77
2018-03-28T08:28:08.204Z,87.03
2018-03-28T08:30:35.762Z,76.67
2018-03-28T08:33:03.318Z,87.33
2018-03-28T08:35:30.898Z,83.03
2018-03-28T08:37:58.470Z,92.23
2018-03-28T08:40:26.054Z,86.10
2018-03-28T08:42:53.596Z,80.43
2018-03-28T08:45:21.174Z,78.80
2018-03-28T08:47:49.056Z,80.83
2018-03-28T08:50:17.363Z,77.40
2018-03-28T08:52:44.922Z,86.00
2018-03-28T08:55:13.254Z,83.07
2018-03-28T08:57:40.847Z,74.10
2018-03-28T09:00:08.446Z,66.67
2018-03-28T09:02:37.032Z,81.97
2018-03-28T09:05:04.632Z,74.70
2018-03-28T09:07:32.197Z,85.80
2018-03-28T09:10:00.549Z,70.90
2018-03-28T09:12:28.128Z,75.83
2018-03-28T09:14:55.681Z,82.50
2018-03-28T09:17:23.224Z,87.50
2018-03-28T09:19:50.798Z,84.70
2018-03-28T09:22:18.353Z,83.70
2018-03-28T09:24:45.901Z,82.47
2018-03-28T09:27:13.460Z,90.63
2018-03-28T09:29:41.789Z,83.23
2018-03-28T09:32:10.084Z,78.30
2018-03-28T09:34:37.646Z,70.77
2018-03-28T09:37:05.174Z,74.83
2018-03-28T09:39:32.758Z,85.80
2018-03-28T09:42:00.290Z,85.77
2018-03-28T09:44:27.844Z,87.23
2018-03-28T09:46:55.393Z,86.13
2018-03-28T09:49:22.954Z,89.07
2018-03-28T09:51:50.586Z,95.73
2018-03-28T09:54:18.143Z,96.40
2018-03-28T09:56:45.698Z,96.50
2018-03-28T09:59:13.268Z,89.03
2018-03-28T10:01:46.526Z,84.87
2018-03-28T10:04:14.874Z,76.10
2018-03-28T10:06:42.415Z,90.40
2018-03-28T10:09:09.972Z,90.03
2018-03-28T10:11:37.535Z,86.37
2018-03-28T10:14:05.078Z,81.47
2018-03-28T10:16:32.623Z,88.93
2018-03-28T10:19:00.170Z,88.00
2018-03-28T10:21:27.735Z,81.40
2018-03-28T10:23:55.302Z,92.83
2018-03-28T10:26:22.863Z,94.43
2018-03-28T10:28:50.408Z,84.07
2018-03-28T10:31:17.996Z,84.83
2018-03-28T10:33:45.541Z,99.93
2018-03-28T10:36:13.127Z,93.63
2018-03-28T10:38:40.683Z,94.60
2018-03-28T10:41:08.247Z,102.23
2018-03-28T10:43:35.820Z,93.37
2018-03-28T10:46:03.467Z,87.27
2018-03-28T10:48:31.026Z,86.10
2018-03-28T10:50:59.366Z,95.93
2018-03-28T10:53:27.685Z,82.50
2018-03-28T10:55:55.236Z,100.20
2018-03-28T10:58:22.841Z,96.03
2018-03-28T11:00:50.370Z,86.77
2018-03-28T11:03:17.941Z,85.77
2018-03-28T11:05:46.233Z,78.27
2018-03-28T11:08:13.859Z,88.40
2018-03-28T11:10:41.410Z,88.73
2018-03-28T11:13:08.971Z,82.63
2018-03-28T11:15:36.521Z,87.83
2018-03-28T11:18:04.062Z,83.10
2018-03-28T11:20:32.418Z,76.97
2018-03-28T11:22:59.968Z,82.17
2018-03-28T11:25:27.833Z,86.13
2018-03-28T11:27:55.390Z,78.80
2018-03-28T11:30:22.969Z,77.70
2018-03-28T11:32:50.516Z,68.87
2018-03-28T11:35:18.061Z,68.13
2018-03-28T11:37:45.644Z,69.50
2018-03-28T11:40:13.195Z,67.43
2018-03-28T11:42:40.748Z,58.87
2018-03-28T11:45:08.279Z,62.07
2018-03-28T11:47:35.904Z,58.47
2018-03-28T11:50:03.414Z,53.83
2018-03-28T11:52:30.977Z,59.30
2018-03-28T11:54:58.523Z,54.87
2018-03-28T11:57:26.080Z,53.50
2018-03-28T11:59:53.630Z,53.93
2018-03-28T12:02:21.212Z,42.97
2018-03-28T12:04:48.749Z,53.33
2018-03-28T12:07:16.338Z,34.53
2018-03-28T12:09:43.948Z,53.57
2018-03-28T12:12:11.487Z,53.50
2018-03-28T12:14:39.044Z,47.57
2018-03-28T12:17:08.597Z,50.10
2018-03-28T12:19:36.186Z,49.57
2018-03-28T12:22:08.836Z,49.23
2018-03-28T12:24:41.737Z,49.40
2018-03-28T12:27:19.274Z,45.17
2018-03-28T12:29:47.827Z,48.63
2018-03-28T12:32:15.375Z,44.80
2018-03-28T12:34:42.928Z,49.90
2018-03-28T12:37:10.500Z,48.37
2018-03-28T12:39:38.090Z,44.93
2018-03-28T12:42:06.473Z,50.77
2018-03-28T12:44:34.034Z,44.80
2018-03-28T12:47:01.606Z,44.00
2018-03-28T12:49:29.147Z,51.80
2018-03-28T12:51:56.715Z,45.20
2018-03-28T12:54:24.257Z,54.43
2018-03-28T12:56:51.851Z,46.13
2018-03-28T12:59:19.419Z,47.27
2018-03-28T13:01:47.729Z,45.70
2018-03-28T13:04:16.327Z,54.60
2018-03-28T13:06:43.874Z,46.47
2018-03-28T13:09:11.554Z,50.37
2018-03-28T13:11:43.174Z,45.50
2018-03-28T13:14:10.747Z,49.03
2018-03-28T13:16:38.274Z,46.67
2018-03-28T13:19:06.613Z,46.80
2018-03-28T13:21:34.169Z,44.70
2018-03-28T13:24:01.726Z,44.73
2018-03-28T13:26:29.263Z,50.17
2018-03-28T13:28:56.834Z,43.63
2018-03-28T13:31:24.394Z,46.67
2018-03-28T13:33:51.934Z,40.77
2018-03-28T13:36:19.489Z,42.13
2018-03-28T13:38:47.786Z,31.50
2018-03-28T13:41:15.345Z,32.53
2018-03-28T13:43:42.894Z,44.50
2018-03-28T13:46:10.450Z,46.50
2018-03-28T13:48:38.789Z,46.77
2018-03-28T13:51:06.348Z,48.70
2018-03-28T13:53:33.883Z,42.10
2018-03-28T13:56:01.439Z,39.07
2018-03-28T13:58:28.987Z,42.03
2018-03-28T14:00:56.556Z,36.07
2018-03-28T14:03:24.105Z,46.43
2018-03-28T14:05:51.645Z,34.47
2018-03-28T14:08:19.973Z,38.43
2018-03-28T14:10:47.526Z,43.63
2018-03-28T14:13:15.079Z,40.70
2018-03-28T14:15:42.634Z,32.33
2018-03-28T14:18:10.198Z,46.67
2018-03-28T14:20:37.747Z,49.47
2018-03-28T14:23:05.315Z,41.10
2018-03-28T14:25:32.855Z,31.50
2018-03-28T14:28:00.437Z,42.00
2018-03-28T14:30:28.008Z,40.13
2018-03-28T14:32:55.567Z,42.60
2018-03-28T14:35:23.183Z,34.13
2018-03-28T14:37:50.707Z,41.17
2018-03-28T14:40:19.266Z,36.97
2018-03-28T14:42:54.592Z,44.57
2018-03-28T14:45:14.531Z,35.73
2018-03-28T14:47:43.063Z,37.27
2018-03-28T14:50:10.686Z,42.90
2018-03-28T14:52:39.026Z,37.37
2018-03-28T14:55:06.656Z,31.87
2018-03-28T14:57:34.236Z,44.77
2018-03-28T15:00:01.804Z,38.00
2018-03-28T15:02:29.370Z,45.43
2018-03-28T15:04:56.922Z,36.97
2018-03-28T15:07:24.503Z,42.57
2018-03-28T15:09:52.046Z,43.70
2018-03-28T15:12:19.609Z,45.07
2018-03-28T15:14:47.194Z,46.03
2018-03-28T15:17:14.769Z,52.03
2018-03-28T15:19:43.072Z,42.27
2018-03-28T15:22:10.666Z,35.57
2018-03-28T15:24:38.317Z,44.13
2018-03-28T15:27:05.917Z,46.57
2018-03-28T15:29:33.458Z,40.40
2018-03-28T15:32:00.995Z,45.50
2018-03-28T15:34:28.547Z,38.87
2018-03-28T15:36:56.116Z,41.07
2018-03-28T15:39:23.743Z,39.40
2018-03-28T15:41:51.295Z,35.57
2018-03-28T15:44:19.635Z,47.73
2018-03-28T15:46:47.951Z,35.97
2018-03-28T15:49:16.283Z,37.87
2018-03-28T15:51:43.823Z,42.53
2018-03-28T15:54:11.363Z,41.63
2018-03-28T15:56:39.689Z,37.77
2018-03-28T15:59:07.266Z,42.73
2018-03-28T16:01:34.850Z,37.23
2018-03-28T16:04:03.159Z,42.13
2018-03-28T16:06:30.725Z,48.67
2018-03-28T16:08:58.264Z,46.23
2018-03-28T16:11:25.830Z,45.50
2018-03-28T16:13:56.964Z,44.97
2018-03-28T16:16:24.499Z,38.70
2018-03-28T16:18:52.113Z,49.57
2018-03-28T16:21:19.665Z,42.60
2018-03-28T16:23:47.237Z,44.90
2018-03-28T16:26:14.775Z,47.87
2018-03-28T16:28:42.351Z,42.37
2018-03-28T16:31:10.027Z,46.80
2018-03-28T16:33:37.604Z,38.13
2018-03-28T16:36:05.934Z,41.67
2018-03-28T16:38:33.526Z,41.67
2018-03-28T16:41:01.160Z,44.60
2018-03-28T16:43:29.494Z,48.83
2018-03-28T16:45:57.048Z,44.27
2018-03-28T16:48:24.606Z,37.73
2018-03-28T16:50:52.171Z,47.67
2018-03-28T16:53:19.739Z,44.57
2018-03-28T16:55:47.327Z,37.60
2018-03-28T16:58:15.626Z,45.23
2018-03-28T17:00:43.187Z,45.87
2018-03-28T17:03:10.727Z,49.63
2018-03-28T17:05:39.022Z,48.87
2018-03-28T17:08:06.595Z,51.20
2018-03-28T17:10:34.134Z,45.80
2018-03-28T17:13:02.475Z,52.57
2018-03-28T17:15:30.020Z,47.10
2018-03-28T17:17:57.598Z,45.07
2018-03-28T17:20:25.133Z,49.20
2018-03-28T17:22:52.701Z,53.73
2018-03-28T17:25:20.264Z,48.47
2018-03-28T17:27:47.840Z,45.97
2018-03-28T17:30:15.405Z,50.93
2018-03-28T17:32:42.991Z,48.20
2018-03-28T17:35:11.306Z,50.73
2018-03-28T17:37:38.841Z,45.47
2018-03-28T17:40:06.451Z,51.90
2018-03-28T17:42:34.001Z,47.13
2018-03-28T17:45:01.579Z,52.07
2018-03-28T17:47:29.142Z,50.83
2018-03-28T17:49:56.733Z,40.00
2018-03-28T17:52:24.434Z,58.27
2018-03-28T17:54:53.121Z,45.20
2018-03-28T17:57:20.714Z,50.00
2018-03-28T17:59:48.255Z,63.30
2018-03-28T18:02:15.814Z,51.43
2018-03-28T18:04:43.419Z,47.73
2018-03-28T18:07:11.772Z,58.90
2018-03-28T18:09:39.333Z,58.70
2018-03-28T18:12:07.190Z,57.70
2018-03-28T18:14:34.766Z,58.73
2018-03-28T18:17:02.319Z,64.60
2018-03-28T18:19:29.871Z,57.83
2018-03-28T18:21:57.435Z,68.13
2018-03-28T18:24:25.062Z,56.43
2018-03-28T18:26:53.000Z,64.03
2018-03-28T18:29:20.594Z,59.47
2018-03-28T18:31:48.294Z,65.90
2018-03-28T18:34:15.843Z,64.77
2018-03-28T18:36:43.415Z,58.07
2018-03-28T18:39:15.722Z,61.53
2018-03-28T18:41:45.239Z,60.73
2018-03-28T18:44:16.038Z,63.90
2018-03-28T18:46:50.039Z,62.63
2018-03-28T18:49:24.057Z,70.67
2018-03-28T18:51:51.643Z,54.00
2018-03-28T18:54:19.205Z,71.90
2018-03-28T18:56:47.565Z,69.67
2018-03-28T18:59:15.156Z,77.80
2018-03-28T19:01:43.729Z,60.37
2018-03-28T19:04:11.344Z,69.03
2018-03-28T19:06:38.869Z,70.50
2018-03-28T19:09:06.442Z,70.33
2018-03-28T19:11:33.982Z,83.80
2018-03-28T19:14:01.578Z,75.27
2018-03-28T19:16:29.538Z,80.70
2018-03-28T19:18:57.083Z,69.17
2018-03-28T19:21:24.668Z,75.27
2018-03-28T19:23:52.216Z,76.03
2018-03-28T19:26:19.818Z,77.00
2018-03-28T19:28:47.414Z,85.40
2018-03-28T19:31:15.007Z,85.53
2018-03-28T19:33:42.573Z,90.47
2018-03-28T19:36:10.244Z,80.43
2018-03-28T19:38:37.817Z,79.10
2018-03-28T19:41:05.370Z,76.70
2018-03-28T19:43:33.002Z,90.93
2018-03-28T19:46:00.565Z,97.90
2018-03-28T19:48:28.305Z,98.23
2018-03-28T19:50:56.616Z,86.60
2018-03-28T19:53:24.183Z,94.23
2018-03-28T19:55:51.764Z,94.80
2018-03-28T19:58:19.343Z,76.67
2018-03-28T20:00:46.918Z,98.83
2018-03-28T20:03:14.528Z,87.70
2018-03-28T20:05:42.124Z,105.27
2018-03-28T20:08:09.705Z,98.33
2018-03-28T20:10:37.302Z,108.57
2018-03-28T20:13:04.849Z,97.60
2018-03-28T20:15:32.405Z,101.60
2018-03-28T20:18:00.006Z,97.23
2018-03-28T20:20:27.763Z,82.87
2018-03-28T20:22:55.345Z,96.67
2018-03-28T20:25:22.897Z,121.83
2018-03-28T20:27:50.469Z,117.80
2018-03-28T20:30:18.016Z,115.50
2018-03-28T20:32:45.663Z,123.97
2018-03-28T20:35:13.273Z,127.07
2018-03-28T20:37:41.656Z,121.67
2018-03-28T20:40:10.010Z,135.17
2018-03-28T20:42:37.561Z,125.37
2018-03-28T20:45:05.144Z,133.53
2018-03-28T20:47:32.681Z,115.77
2018-03-28T20:50:00.245Z,120.00
2018-03-28T20:52:27.878Z,121.37
2018-03-28T20:54:55.466Z,126.53
2018-03-28T20:57:23.046Z,108.53
2018-03-28T20:59:50.620Z,108.10
2018-03-28T21:02:18.176Z,125.20
2018-03-28T21:04:45.752Z,128.90
2018-03-28T21:07:13.330Z,124.37
2018-03-28T21:09:40.881Z,114.37
2018-03-28T21:12:08.474Z,129.53
2018-03-28T21:14:36.041Z,118.83
2018-03-28T21:17:03.606Z,114.07
2018-03-28T21:19:31.156Z,120.27
2018-03-28T21:21:58.729Z,128.33
2018-03-28T21:24:26.293Z,123.80
2018-03-28T21:26:53.862Z,119.93
2018-03-28T21:29:21.557Z,98.13
2018-03-28T21:31:49.163Z,127.37
2018-03-28T21:34:16.773Z,133.87
2018-03-28T21:36:45.117Z,119.87
2018-03-28T21:39:12.702Z,125.70
2018-03-28T21:41:41.036Z,106.90
2018-03-28T21:44:09.357Z,108.10
2018-03-28T21:46:37.678Z,109.03
2018-03-28T21:49:05.248Z,125.13
2018-03-28T21:51:33.295Z,101.97
2018-03-28T21:54:00.877Z,103.47
2018-03-28T21:56:28.429Z,117.43
2018-03-28T21:58:56.029Z,100.00
2018-03-28T22:01:23.585Z,105.23
2018-03-28T22:03:51.131Z,95.43
2018-03-28T22:06:18.778Z,72.40
2018-03-28T22:08:46.308Z,97.87
2018-03-28T22:11:13.890Z,107.20
2018-03-28T22:13:41.451Z,95.83
2018-03-28T22:16:09.027Z,87.53
2018-03-28T22:18:36.573Z,86.70
2018-03-28T22:21:04.178Z,97.53
2018-03-28T22:23:32.507Z,85.73
2018-03-28T22:26:00.066Z,84.63
2018-03-28T22:28:27.606Z,92.90
2018-03-28T22:30:55.942Z,81.17
2018-03-28T22:33:23.487Z,96.97
2018-03-28T22:35:51.041Z,73.53
2018-03-28T22:38:18.673Z,79.53
2018-03-28T22:40:46.232Z,87.50
2018-03-28T22:43:14.559Z,80.30
2018-03-28T22:45:42.111Z,72.97
2018-03-28T22:48:09.718Z,69.27
2018-03-28T22:50:37.270Z,72.00
2018-03-28T22:53:04.842Z,77.23
2018-03-28T22:55:33.146Z,78.83
2018-03-28T22:58:00.711Z,78.47
2018-03-28T23:00:28.253Z,83.63
2018-03-28T23:02:55.816Z,73.03
2018-03-28T23:05:23.370Z,74.53
2018-03-28T23:07:50.981Z,78.30
2018-03-28T23:10:19.298Z,69.63
2018-03-28T23:12:47.618Z,81.87
2018-03-28T23:15:15.178Z,66.23
2018-03-28T23:17:42.733Z,74.47
2018-03-28T23:20:10.290Z,71.93
2018-03-28T23:22:38.882Z,75.70
2018-03-28T23:25:06.544Z,75.30
2018-03-28T23:27:34.103Z,70.53
2018-03-28T23:30:01.664Z,73.03
2018-03-28T23:32:29.221Z,70.63
2018-03-28T23:34:56.831Z,73.10
2018-03-28T23:37:24.367Z,91.93
2018-03-28T23:39:51.926Z,73.50
2018-03-28T23:42:19.499Z,70.93
2018-03-28T23:44:47.057Z,69.73
2018-03-28T23:47:14.606Z,60.00
2018-03-28T23:49:42.162Z,74.77
2018-03-28T23:52:09.707Z,77.73
2018-03-28T23:54:37.270Z,78.47
2018-03-28T23:57:04.888Z,71.63
2018-03-28T23:59:32.462Z,75.47
